Flight Track Log - Related Links

Times and Time Zones

All times are in EST time to prevent confusion due to time zone crossing. See the UAL1116 flight status page for this flight to view local times or setup timezone preferences in your user account.


Time Position Orientation Groundspeed Altitude Reporting Facility
EST Latitude Longitude Course Direction KTS MPH feet Rate Location/Type
Mon 12:38:10 AM 37.6160 -122.3750 31° Northeast 135 155  Level FlightAware ADS-B
Mon 12:38:26 AM 37.6268 -122.3670 30° Northeast 178 205 1,304 Level FlightAware ADS-B
Mon 12:38:33 AM 37.6318 -122.3640 25° Northeast 169 194 500 3,857 Climbing FlightAware ADS-B
Mon 12:38:40 AM 37.6365 -122.3600 34° Northeast 166 191 900 2,727 Climbing FlightAware ADS-B
Mon 12:38:44 AM 37.6388 -122.3580 35° Northeast 169 194 1,000 2,000 Climbing FlightAware ADS-B
Mon 12:38:55 AM 37.6455 -122.3490 47° Northeast 182 209 1,400 1,920 Climbing FlightAware ADS-B
Mon 12:39:09 AM 37.6539 -122.3390 43° Northeast 194 223 1,800 1,909 Climbing FlightAware ADS-B
Mon 12:39:17 AM 37.6594 -122.3310 49° Northeast 204 235 2,100 2,609 Climbing FlightAware ADS-B
Mon 12:39:32 AM 37.6696 -122.3180 45° Northeast 217 250 2,800 2,516 Climbing FlightAware ADS-B
Mon 12:39:48 AM 37.6809 -122.3020 48° Northeast 230 265 3,400 2,063 Climbing FlightAware ADS-B
Mon 12:40:04 AM 37.6931 -122.2850 48° Northeast 256 295 3,900 2,308 Climbing FlightAware ADS-B
Mon 12:40:14 AM 37.7014 -122.2730 49° Northeast 264 304 4,400 3,000 Climbing FlightAware ADS-B
Mon 12:40:18 AM 37.7048 -122.2700 35° Northeast 266 306 4,600 2,571 Climbing FlightAware ADS-B
Mon 12:40:21 AM 37.7079 -122.2670 37° Northeast 269 310 4,700 3,771 Climbing FlightAware ADS-B
Mon 12:40:53 AM 37.7469 -122.2600 North 273 314 6,800 3,574 Climbing FlightAware ADS-B
Mon 12:41:08 AM 37.7655 -122.2620 355° North 278 320 7,500 2,813 Climbing FlightAware ADS-B
Mon 12:42:29 AM 37.8734 -122.2810 352° North 297 342 11,300 2,509 Climbing FlightAware ADS-B
Mon 12:42:58 AM 37.9188 -122.2850 356° North 343 395 12,100 2,323 Climbing FlightAware ADS-B
Mon 12:44:02 AM 38.0236 -122.2910 357° North 361 415 14,900 2,550 Climbing FlightAware ADS-B
Mon 12:44:58 AM 38.1053 -122.2972 357° North 365 420 17,200 2,462 Climbing Oakland Center
Mon 12:45:59 AM 38.2092 -122.3042 357° North 375 432 19,700 2,410 Climbing Oakland Center
Mon 12:47:00 AM 38.3136 -122.3119 357° North 378 435 22,100 2,115 Climbing Oakland Center
Mon 12:48:01 AM 38.4219 -122.3200 357° North 389 448 24,000 1,672 Climbing Oakland Center
Mon 12:49:02 AM 38.5328 -122.3269 357° North 399 459 25,500 1,438 Climbing Oakland Center
Mon 12:50:02 AM 38.6503 -122.3347 357° North 420 483 26,900 1,636 Climbing Oakland Center
Mon 12:51:03 AM 38.7906 -122.3453 357° North 430 495 28,800 1,869 Climbing Oakland Center
Mon 12:52:04 AM 38.9106 -122.3539 357° North 431 496 30,700 1,672 Climbing Oakland Center
Mon 12:53:05 AM 39.0286 -122.3622 357° North 425 489 32,200 1,438 Climbing Oakland Center
Mon 12:54:05 AM 39.1458 -122.3714 357° North 422 486 33,600 1,339 Climbing Oakland Center
Mon 12:55:06 AM 39.2631 -122.3778 358° North 422 486 34,900 1,180 Climbing Oakland Center
Mon 12:56:07 AM 39.3778 -122.3867 357° North 415 478 36,000 541 Climbing Oakland Center
Mon 12:57:08 AM 39.4986 -122.3964 356° North 419 482 36,000  Level Oakland Center
Mon 12:58:08 AM 39.6142 -122.4039 357° North 417 480 36,000  Level Oakland Center
Mon 01:03:08 AM 40.1905 -122.4453 357° North 408 470 36,000  Level FlightAware ADS-B
Mon 01:05:47 AM 40.4913 -122.4673 357° North 410 472 36,000  Level FlightAware ADS-B
Mon 01:06:28 AM 40.5672 -122.4730 357° North 410 472 36,000  Level FlightAware ADS-B
Mon 01:07:39 AM 40.6997 -122.4828 357° North 410 472 36,000  Level FlightAware ADS-B
Mon 01:08:11 AM 40.7643 -122.4876 357° North 409 471 36,000  Level FlightAware ADS-B
Mon 01:08:57 AM 40.8297 -122.4936 357° North 408 470 36,000  Level Seattle Center
Mon 01:09:57 AM 40.9422 -122.5028 356° North 406 467 36,000  Level Seattle Center
Mon 01:10:58 AM 41.0558 -122.5125 356° North 408 470 36,000  Level Seattle Center
Mon 01:11:58 AM 41.1683 -122.5206 357° North 408 470 36,000  Level Seattle Center
Mon 01:12:59 AM 41.3039 -122.5303 357° North 407 468 36,000  Level Seattle Center
Mon 01:14:00 AM 41.4064 -122.5378 357° North 407 468 36,000  Level Seattle Center
Mon 01:15:00 AM 41.5208 -122.5464 357° North 411 473 36,000  Level Seattle Center
Mon 01:16:01 AM 41.6347 -122.5539 357° North 410 472 36,000  Level Seattle Center
Mon 01:17:01 AM 41.7483 -122.5622 357° North 408 470 36,000  Level Seattle Center
Mon 01:18:02 AM 41.8617 -122.5703 357° North 408 470 36,000  Level Seattle Center
Mon 01:19:02 AM 41.9744 -122.5792 357° North 404 465 36,000  Level Seattle Center
Mon 01:20:03 AM 42.0878 -122.5892 356° North 405 466 36,000  Level Seattle Center
Mon 01:21:03 AM 42.2000 -122.5972 357° North 402 463 36,000  Level Seattle Center
Mon 01:22:04 AM 42.3131 -122.6033 358° North 402 463 36,000  Level Seattle Center
Mon 01:23:04 AM 42.4244 -122.6125 357° North 400 460 36,000  Level Seattle Center
Mon 01:24:05 AM 42.5361 -122.6206 357° North 399 459 36,000  Level Seattle Center
Mon 01:25:05 AM 42.6461 -122.6300 356° North 397 457 36,000  Level Seattle Center
Mon 01:26:06 AM 42.7625 -122.6392 357° North 395 455 36,000  Level Seattle Center
Mon 01:27:06 AM 42.8742 -122.6475 357° North 399 459 36,000  Level Seattle Center
Mon 01:28:07 AM 42.9853 -122.6569 356° North 399 459 36,000  Level Seattle Center
Mon 01:29:07 AM 43.0964 -122.6653 357° North 399 459 36,000  Level Seattle Center
Mon 01:30:08 AM 43.2067 -122.6739 357° North 395 455 36,000  Level Seattle Center
Mon 01:31:08 AM 43.3178 -122.6842 356° North 397 457 36,000  Level Seattle Center
Mon 01:32:08 AM 43.4275 -122.6933 357° North 396 456 36,000  Level Seattle Center
Mon 01:33:09 AM 43.5400 -122.7008 357° North 400 460 36,000  Level Seattle Center
Mon 01:34:09 AM 43.6506 -122.7100 357° North 399 459 36,000 -298 Level Seattle Center
Mon 01:35:10 AM 43.7628 -122.7197 356° North 403 464 35,400 -1,240 Descending Seattle Center
Mon 01:36:10 AM 43.8739 -122.7283 357° North 402 463 33,500 -2,231 Descending Seattle Center
Mon 01:37:11 AM 43.9847 -122.7389 356° North 402 463 30,900 -2,331 Descending Seattle Center
Mon 01:38:11 AM 44.0942 -122.7469 357° North 396 456 28,800 -2,033 Descending Seattle Center
Mon 01:39:12 AM 44.2014 -122.7472 360° North 389 448 26,800 -2,281 Descending Seattle Center
Mon 01:40:12 AM 44.3314 -122.7344 North 393 452 24,200 -2,200 Descending Seattle Center
Mon 01:41:12 AM 44.4200 -122.7253 North 389 448 22,400 -1,884 Descending Seattle Center
Mon 01:42:13 AM 44.5256 -122.7156 North 384 442 20,400 -1,884 Descending Seattle Center
Mon 01:43:13 AM 44.6300 -122.7058 North 379 436 18,600 -1,884 Descending Seattle Center
Mon 01:44:14 AM 44.7483 -122.6931 North 363 418 16,600 -1,895 Descending Seattle Center
Mon 01:44:29 AM 44.7703 -122.6925 North 355 409 16,200 -1,941 Descending Seattle Center
Mon 01:44:48 AM 44.8022 -122.6889 North 356 410 15,500 -2,400 Descending Seattle Center
Mon 01:45:14 AM 44.8478 -122.6839 North 360 414 14,400 -2,200 Descending Seattle Center
Mon 01:45:48 AM 44.9019 -122.6792 North 361 415 13,300 -2,066 Descending Seattle Center
Mon 01:46:15 AM 44.9450 -122.6739 North 356 410 12,300 -1,672 Descending Seattle Center
Mon 01:46:49 AM 45.0019 -122.6694 North 336 387 11,600 -1,300 Descending Seattle Center
Mon 01:47:15 AM 45.0344 -122.6633 North 324 373 11,000 -1,200 Descending Seattle Center
Mon 01:47:49 AM 45.0867 -122.6597 North 307 353 10,400 -900 Descending Seattle Center
Mon 01:48:15 AM 45.1181 -122.6547 North 299 344 10,100 -984 Descending Seattle Center
Mon 01:48:50 AM 45.1653 -122.6525 North 275 316 9,400 -1,377 Descending Seattle Center
Mon 01:49:16 AM 45.1936 -122.6481 North 273 314 8,700 -1,475 Descending Seattle Center
Mon 01:49:51 AM 45.2414 -122.6431 North 271 312 7,900 -1,400 Descending Seattle Center
Mon 01:50:16 AM 45.2736 -122.6558 344° North 269 310 7,300 -1,500 Descending Seattle Center
Mon 01:50:51 AM 45.3119 -122.6819 334° Northwest 271 312 6,400 -1,475 Descending Seattle Center
Mon 01:51:17 AM 45.3428 -122.6989 339° North 272 313 5,800 -1,377 Descending Seattle Center
Mon 01:51:52 AM 45.3806 -122.7217 337° Northwest 270 311 5,000 -1,300 Descending Seattle Center
Mon 01:52:17 AM 45.4117 -122.7406 337° Northwest 270 311 4,500 -1,000 Descending Seattle Center
Mon 01:52:52 AM 45.4472 -122.7622 337° Northwest 264 304 4,000 -492 Descending Seattle Center
Mon 01:53:18 AM 45.4781 -122.7808 337° Northwest 261 300 4,000  Level Seattle Center
Mon 01:53:53 AM 45.5114 -122.8011 337° Northwest 234 269 4,000  Level Seattle Center
Mon 01:54:18 AM 45.5378 -122.8156 339° North 232 267 4,000  Level Seattle Center
Mon 01:54:54 AM 45.5703 -122.8358 336° Northwest 223 257 4,000 100 Level Seattle Center
Mon 01:55:18 AM 45.5967 -122.8497 340° North 228 262 4,100  Climbing Seattle Center
Mon 01:55:54 AM 45.6286 -122.8678 338° Northwest 195 224 4,000 -492 Descending Seattle Center
Mon 01:56:19 AM 45.6458 -122.8575 23° Northeast 193 222 3,600 -984 Descending Seattle Center
Mon 01:56:55 AM 45.6692 -122.8328 37° Northeast 166 191 3,000 -900 Descending Seattle Center
Mon 01:57:19 AM 45.6711 -122.8064 84° East 179 206 2,700 -492 Descending Seattle Center
Mon 01:57:56 AM 45.6603 -122.7653 111° Southeast 178 205 2,500 -295 Descending Seattle Center
Mon 01:58:20 AM 45.6514 -122.7417 118° Southeast 179 206 2,400 -600 Descending Seattle Center
Mon 01:58:56 AM 45.6369 -122.7039 119° Southeast 175 201 1,900 -900 Descending Seattle Center
Mon 01:59:20 AM 45.6286 -122.6825 119° Southeast 172 198 1,500 -885 Descending Seattle Center
Mon 01:59:57 AM 45.6156 -122.6508 121° Southeast 154 177 1,000 -787 Descending Seattle Center
Mon 02:00:21 AM 45.6089 -122.6314 116° Southeast 152 175 700 -900 Descending Seattle Center
Mon 02:00:57 AM 45.5967 -122.6000 119° Southeast 140 161 100 -1,000 Descending Seattle Center

Login

Don't have an account? Register now (free) for customized features, flight alerts, and more!